UTA282 URMG-UUWW
Flight info
| Callsign | UTA282 |
|---|---|
| Flight time | N/A |
| Altitude | 37000 |
| Route | PINTA1S PINTA G914 KZ DCT VULFI DCT TUVGI DCT EVZUN DCT ZIZAR DCT VAZLU DCT UZZID DCT NOKLI N72 WGD G481 OBABI T619 UMRAL DCT ABABO DCT LEKDO LEKDO3A |
| Aircraft | B738/M-SDE2E3FGHIRWXY/LB1 |
Departure
| Time | N/A |
|---|---|
| Airport | Akhmat Kadyrov Grozny International Airport (URMG) |
Arrival
| Time | 2026-04-28 17:41 |
|---|---|
| Airport | Vnukovo International Airport (UUWW) |
| Time | Latitude | Longitude | Altitude | Speed | Heading |
|---|---|---|---|---|---|
| 2026-04-28 17:01 | 53.39010 | 40.35810 | 36911 ft | 440 kts | 311° |
| 2026-04-28 17:02 | 53.43408 | 40.28659 | 36914 ft | 440 kts | 311° |
| 2026-04-28 17:02 | 53.47803 | 40.21491 | 36917 ft | 441 kts | 311° |
| 2026-04-28 17:03 | 53.54398 | 40.10696 | 36908 ft | 441 kts | 311° |
| 2026-04-28 17:03 | 53.58790 | 40.03477 | 36916 ft | 441 kts | 311° |
| 2026-04-28 17:04 | 53.64625 | 39.93851 | 36916 ft | 441 kts | 311° |
| 2026-04-28 17:05 | 53.71192 | 39.82971 | 36903 ft | 441 kts | 311° |
| 2026-04-28 17:06 | 53.77734 | 39.72081 | 36903 ft | 441 kts | 311° |
| 2026-04-28 17:06 | 53.84275 | 39.61137 | 36890 ft | 441 kts | 311° |
| 2026-04-28 17:07 | 53.88599 | 39.53876 | 36903 ft | 441 kts | 311° |
| 2026-04-28 17:07 | 53.92716 | 39.46247 | 36900 ft | 435 kts | 301° |
| 2026-04-28 17:08 | 53.95701 | 39.37435 | 36897 ft | 423 kts | 295° |
| 2026-04-28 17:08 | 53.97077 | 39.33129 | 36887 ft | 407 kts | 295° |
| 2026-04-28 17:08 | 53.98404 | 39.28978 | 36875 ft | 393 kts | 295° |
| 2026-04-28 17:09 | 53.99689 | 39.24965 | 36876 ft | 380 kts | 295° |
| 2026-04-28 17:09 | 54.00941 | 39.21065 | 36635 ft | 374 kts | 295° |
| 2026-04-28 17:09 | 54.02187 | 39.17186 | 36203 ft | 373 kts | 295° |
| 2026-04-28 17:09 | 54.03443 | 39.13269 | 35291 ft | 385 kts | 296° |
| 2026-04-28 17:10 | 54.04754 | 39.09174 | 34070 ft | 403 kts | 295° |
| 2026-04-28 17:10 | 54.06123 | 39.04892 | 32797 ft | 421 kts | 295° |
| 2026-04-28 17:10 | 54.07539 | 39.00466 | 31894 ft | 427 kts | 296° |
| 2026-04-28 17:10 | 54.08955 | 38.96051 | 31471 ft | 421 kts | 296° |
| 2026-04-28 17:11 | 54.10328 | 38.91775 | 31094 ft | 414 kts | 296° |
| 2026-04-28 17:11 | 54.11698 | 38.87500 | 30612 ft | 409 kts | 297° |
| 2026-04-28 17:11 | 54.13051 | 38.83264 | 30107 ft | 405 kts | 297° |
| 2026-04-28 17:11 | 54.14391 | 38.79057 | 29613 ft | 401 kts | 297° |
| 2026-04-28 17:12 | 54.15714 | 38.74893 | 29105 ft | 397 kts | 297° |
| 2026-04-28 17:12 | 54.17023 | 38.70764 | 28576 ft | 394 kts | 297° |
| 2026-04-28 17:12 | 54.18319 | 38.66674 | 28081 ft | 390 kts | 297° |
| 2026-04-28 17:12 | 54.19603 | 38.62612 | 27563 ft | 387 kts | 298° |
| 2026-04-28 17:13 | 54.20873 | 38.58585 | 27061 ft | 383 kts | 298° |
| 2026-04-28 17:13 | 54.22124 | 38.54614 | 26574 ft | 380 kts | 298° |
| 2026-04-28 17:13 | 54.23369 | 38.50655 | 26092 ft | 376 kts | 298° |
| 2026-04-28 17:13 | 54.24601 | 38.46730 | 25591 ft | 373 kts | 299° |
| 2026-04-28 17:14 | 54.25819 | 38.42844 | 25087 ft | 370 kts | 299° |
| 2026-04-28 17:14 | 54.27029 | 38.38977 | 24557 ft | 367 kts | 299° |
| 2026-04-28 17:14 | 54.28227 | 38.35142 | 24096 ft | 364 kts | 300° |
| 2026-04-28 17:14 | 54.29413 | 38.31341 | 23663 ft | 359 kts | 300° |
| 2026-04-28 17:15 | 54.30580 | 38.27593 | 23241 ft | 355 kts | 299° |
| 2026-04-28 17:15 | 54.31732 | 38.23890 | 22839 ft | 350 kts | 299° |
| 2026-04-28 17:15 | 54.32868 | 38.20231 | 22443 ft | 346 kts | 299° |
| 2026-04-28 17:15 | 54.33989 | 38.16616 | 22052 ft | 341 kts | 299° |
| 2026-04-28 17:16 | 54.35095 | 38.13047 | 21668 ft | 337 kts | 299° |
| 2026-04-28 17:16 | 54.36188 | 38.09512 | 21289 ft | 333 kts | 299° |
| 2026-04-28 17:16 | 54.37266 | 38.06020 | 20907 ft | 330 kts | 298° |
| 2026-04-28 17:16 | 54.38333 | 38.02557 | 20529 ft | 327 kts | 298° |
| 2026-04-28 17:17 | 54.39389 | 37.99129 | 20156 ft | 323 kts | 298° |
| 2026-04-28 17:17 | 54.40434 | 37.95731 | 19786 ft | 321 kts | 298° |
| 2026-04-28 17:17 | 54.41476 | 37.92336 | 19422 ft | 321 kts | 298° |
| 2026-04-28 17:17 | 54.42514 | 37.88950 | 19044 ft | 321 kts | 298° |
| 2026-04-28 17:18 | 54.43562 | 37.85526 | 18698 ft | 329 kts | 298° |
| 2026-04-28 17:18 | 54.44634 | 37.82018 | 18314 ft | 332 kts | 298° |
| 2026-04-28 17:18 | 54.45700 | 37.78523 | 17919 ft | 329 kts | 298° |
| 2026-04-28 17:18 | 54.46751 | 37.75072 | 17550 ft | 324 kts | 298° |
| 2026-04-28 17:19 | 54.47785 | 37.71670 | 17187 ft | 320 kts | 297° |
| 2026-04-28 17:19 | 54.48777 | 37.68408 | 16845 ft | 315 kts | 297° |
| 2026-04-28 17:19 | 54.49784 | 37.65091 | 16479 ft | 311 kts | 297° |
| 2026-04-28 17:19 | 54.50773 | 37.61825 | 16136 ft | 306 kts | 297° |
| 2026-04-28 17:20 | 54.51741 | 37.58620 | 15800 ft | 302 kts | 297° |
| 2026-04-28 17:20 | 54.52367 | 37.56551 | 15624 ft | 298 kts | 297° |
| 2026-04-28 17:20 | 54.53619 | 37.52407 | 15174 ft | 293 kts | 297° |
| 2026-04-28 17:20 | 54.54554 | 37.49312 | 14850 ft | 290 kts | 297° |
| 2026-04-28 17:21 | 54.55517 | 37.46245 | 14459 ft | 294 kts | 303° |
| 2026-04-28 17:21 | 54.57007 | 37.43796 | 13853 ft | 305 kts | 327° |
| 2026-04-28 17:21 | 54.59000 | 37.42453 | 13385 ft | 309 kts | 340° |
| 2026-04-28 17:22 | 54.63123 | 37.40437 | 12481 ft | 307 kts | 340° |
| 2026-04-28 17:22 | 54.65175 | 37.39431 | 12041 ft | 306 kts | 340° |
| 2026-04-28 17:22 | 54.67180 | 37.38430 | 11661 ft | 302 kts | 340° |
| 2026-04-28 17:23 | 54.71166 | 37.36399 | 11087 ft | 291 kts | 339° |
| 2026-04-28 17:23 | 54.73070 | 37.35433 | 10952 ft | 280 kts | 339° |
| 2026-04-28 17:23 | 54.74903 | 37.34494 | 10827 ft | 269 kts | 338° |
| 2026-04-28 17:23 | 54.76703 | 37.33899 | 10602 ft | 269 kts | 354° |
| 2026-04-28 17:24 | 54.78553 | 37.34016 | 10356 ft | 267 kts | 357° |
| 2026-04-28 17:24 | 54.80390 | 37.34144 | 10128 ft | 264 kts | 356° |
| 2026-04-28 17:24 | 54.82166 | 37.34268 | 10071 ft | 252 kts | 356° |
| 2026-04-28 17:24 | 54.83898 | 37.34365 | 9918 ft | 247 kts | 355° |
| 2026-04-28 17:25 | 54.85638 | 37.34459 | 9672 ft | 253 kts | 355° |
| 2026-04-28 17:25 | 54.89216 | 37.34630 | 9196 ft | 256 kts | 355° |
| 2026-04-28 17:25 | 54.90990 | 37.34725 | 9087 ft | 255 kts | 355° |
| 2026-04-28 17:26 | 54.92759 | 37.34818 | 9025 ft | 252 kts | 355° |
| 2026-04-28 17:26 | 54.94489 | 37.34915 | 8991 ft | 245 kts | 355° |
| 2026-04-28 17:26 | 54.96176 | 37.35013 | 8991 ft | 241 kts | 355° |
| 2026-04-28 17:26 | 54.97842 | 37.35106 | 9000 ft | 241 kts | 355° |
| 2026-04-28 17:27 | 54.99527 | 37.35200 | 8997 ft | 244 kts | 355° |
| 2026-04-28 17:27 | 55.01222 | 37.35300 | 9012 ft | 244 kts | 355° |
| 2026-04-28 17:27 | 55.02905 | 37.35395 | 8991 ft | 240 kts | 355° |
| 2026-04-28 17:27 | 55.04579 | 37.35492 | 8803 ft | 239 kts | 355° |
| 2026-04-28 17:28 | 55.06217 | 37.35591 | 8638 ft | 235 kts | 355° |
| 2026-04-28 17:28 | 55.09421 | 37.35778 | 8304 ft | 229 kts | 355° |
| 2026-04-28 17:28 | 55.11013 | 37.35868 | 8146 ft | 229 kts | 355° |
| 2026-04-28 17:29 | 55.12613 | 37.35957 | 7986 ft | 231 kts | 355° |
| 2026-04-28 17:29 | 55.14215 | 37.36050 | 7813 ft | 230 kts | 355° |
| 2026-04-28 17:29 | 55.15824 | 37.36145 | 7644 ft | 231 kts | 355° |
| 2026-04-28 17:30 | 55.19019 | 37.36328 | 7304 ft | 230 kts | 355° |
| 2026-04-28 17:30 | 55.22184 | 37.36524 | 6977 ft | 227 kts | 355° |
| 2026-04-28 17:30 | 55.23753 | 37.36610 | 6808 ft | 227 kts | 355° |
| 2026-04-28 17:31 | 55.25334 | 37.36697 | 6646 ft | 226 kts | 355° |
| 2026-04-28 17:31 | 55.28413 | 37.36883 | 6319 ft | 222 kts | 355° |
| 2026-04-28 17:32 | 55.31470 | 37.37067 | 5993 ft | 217 kts | 356° |
| 2026-04-28 17:32 | 55.32972 | 37.37557 | 5847 ft | 222 kts | 9° |
| 2026-04-28 17:32 | 55.34447 | 37.38322 | 5679 ft | 222 kts | 8° |
| 2026-04-28 17:32 | 55.35921 | 37.39056 | 5558 ft | 226 kts | 8° |
| 2026-04-28 17:33 | 55.37440 | 37.39796 | 5395 ft | 230 kts | 8° |
| 2026-04-28 17:33 | 55.38965 | 37.40548 | 5220 ft | 228 kts | 8° |
| 2026-04-28 17:33 | 55.40494 | 37.41267 | 5048 ft | 229 kts | 8° |
| 2026-04-28 17:33 | 55.41507 | 37.41804 | 4954 ft | 229 kts | 11° |
| 2026-04-28 17:34 | 55.43525 | 37.42784 | 4732 ft | 223 kts | 7° |
| 2026-04-28 17:34 | 55.45020 | 37.43465 | 4568 ft | 226 kts | 8° |
| 2026-04-28 17:34 | 55.46537 | 37.44175 | 4417 ft | 226 kts | 8° |
| 2026-04-28 17:34 | 55.48038 | 37.44910 | 4252 ft | 224 kts | 9° |
| 2026-04-28 17:35 | 55.49526 | 37.45684 | 4090 ft | 221 kts | 8° |
| 2026-04-28 17:35 | 55.51000 | 37.46339 | 3927 ft | 217 kts | 10° |
| 2026-04-28 17:35 | 55.52439 | 37.47079 | 3766 ft | 214 kts | 9° |
| 2026-04-28 17:35 | 55.53850 | 37.47724 | 3573 ft | 212 kts | 8° |
| 2026-04-28 17:36 | 55.55274 | 37.48372 | 3396 ft | 212 kts | 9° |
| 2026-04-28 17:36 | 55.56686 | 37.49097 | 3222 ft | 210 kts | 6° |
| 2026-04-28 17:36 | 55.58111 | 37.49798 | 3046 ft | 215 kts | 13° |
| 2026-04-28 17:36 | 55.59537 | 37.50303 | 2834 ft | 205 kts | 344° |
| 2026-04-28 17:37 | 55.60765 | 37.49295 | 2759 ft | 192 kts | 327° |
| 2026-04-28 17:37 | 55.62043 | 37.48437 | 2574 ft | 196 kts | 333° |
| 2026-04-28 17:37 | 55.63085 | 37.47103 | 2357 ft | 180 kts | 295° |
| 2026-04-28 17:37 | 55.63146 | 37.45054 | 2277 ft | 168 kts | 258° |
| 2026-04-28 17:38 | 55.62825 | 37.43058 | 2228 ft | 166 kts | 259° |
| 2026-04-28 17:38 | 55.62510 | 37.41148 | 2116 ft | 157 kts | 255° |
| 2026-04-28 17:38 | 55.62133 | 37.39369 | 1956 ft | 152 kts | 252° |
| 2026-04-28 17:38 | 55.61751 | 37.37672 | 1725 ft | 142 kts | 252° |
| 2026-04-28 17:39 | 55.61394 | 37.36082 | 1535 ft | 136 kts | 252° |
| 2026-04-28 17:39 | 55.61042 | 37.34519 | 1366 ft | 138 kts | 252° |
| 2026-04-28 17:39 | 55.60329 | 37.31359 | 986 ft | 139 kts | 252° |
| 2026-04-28 17:40 | 55.59990 | 37.29859 | 818 ft | 139 kts | 251° |
| 2026-04-28 17:40 | 55.59618 | 37.28204 | 683 ft | 135 kts | 250° |
| 2026-04-28 17:40 | 55.59308 | 37.26826 | 667 ft | 104 kts | 248° |
| 2026-04-28 17:40 | 55.59086 | 37.25837 | 668 ft | 70 kts | 248° |
| 2026-04-28 17:41 | 55.58954 | 37.25247 | 658 ft | 36 kts | 248° |
| 2026-04-28 17:41 | 55.58874 | 37.24891 | 658 ft | 29 kts | 248° |
| 2026-04-28 17:41 | 55.58839 | 37.24674 | 658 ft | 17 kts | 283° |
| 2026-04-28 17:41 | 55.58925 | 37.24552 | 658 ft | 16 kts | 332° |
| 2026-04-28 17:42 | 55.58974 | 37.24512 | 658 ft | 7 kts | 345° |
| 2026-04-28 17:42 | 55.59006 | 37.24515 | 658 ft | 7 kts | 19° |
| 2026-04-28 17:42 | 55.59040 | 37.24607 | 658 ft | 7 kts | 68° |
| 2026-04-28 17:42 | 55.59058 | 37.24685 | 658 ft | 7 kts | 68° |
| 2026-04-28 17:43 | 55.59076 | 37.24761 | 658 ft | 7 kts | 68° |
| 2026-04-28 17:43 | 55.59092 | 37.24834 | 658 ft | 7 kts | 69° |
| 2026-04-28 17:43 | 55.59109 | 37.24909 | 658 ft | 6 kts | 68° |
| 2026-04-28 17:43 | 55.59125 | 37.24980 | 658 ft | 6 kts | 68° |
| 2026-04-28 17:44 | 55.59143 | 37.25058 | 658 ft | 8 kts | 68° |
| 2026-04-28 17:44 | 55.59162 | 37.25144 | 658 ft | 8 kts | 68° |
| 2026-04-28 17:44 | 55.59169 | 37.25173 | 659 ft | 7 kts | 68° |
| 2026-04-28 17:45 | 55.59233 | 37.25463 | 665 ft | 7 kts | 70° |
| 2026-04-28 17:45 | 55.59250 | 37.25540 | 666 ft | 7 kts | 69° |
| 2026-04-28 17:45 | 55.59266 | 37.25615 | 667 ft | 7 kts | 68° |
| 2026-04-28 17:46 | 55.59285 | 37.25697 | 667 ft | 8 kts | 67° |
| 2026-04-28 17:46 | 55.59301 | 37.25770 | 667 ft | 8 kts | 69° |
| 2026-04-28 17:46 | 55.59323 | 37.25869 | 667 ft | 9 kts | 68° |
| 2026-04-28 17:47 | 55.59348 | 37.25979 | 667 ft | 10 kts | 69° |
| 2026-04-28 17:47 | 55.59375 | 37.26097 | 667 ft | 11 kts | 68° |
| 2026-04-28 17:47 | 55.59404 | 37.26224 | 668 ft | 11 kts | 68° |
| 2026-04-28 17:47 | 55.59423 | 37.26311 | 668 ft | 12 kts | 68° |
| 2026-04-28 17:48 | 55.59465 | 37.26495 | 665 ft | 13 kts | 68° |
| 2026-04-28 17:48 | 55.59499 | 37.26643 | 668 ft | 13 kts | 70° |
| 2026-04-28 17:48 | 55.59531 | 37.26779 | 668 ft | 11 kts | 62° |
| 2026-04-28 17:48 | 55.59575 | 37.26890 | 668 ft | 11 kts | 49° |
| 2026-04-28 17:49 | 55.59628 | 37.26993 | 668 ft | 11 kts | 46° |
| 2026-04-28 17:49 | 55.59685 | 37.27097 | 668 ft | 12 kts | 46° |
| 2026-04-28 17:49 | 55.59742 | 37.27204 | 669 ft | 12 kts | 47° |
| 2026-04-28 17:49 | 55.59798 | 37.27308 | 673 ft | 12 kts | 46° |
| 2026-04-28 17:50 | 55.59853 | 37.27409 | 675 ft | 11 kts | 46° |
| 2026-04-28 17:50 | 55.59906 | 37.27507 | 676 ft | 11 kts | 46° |
| 2026-04-28 17:50 | 55.59932 | 37.27617 | 679 ft | 11 kts | 85° |
| 2026-04-28 17:50 | 55.59945 | 37.27649 | 679 ft | 3 kts | 12° |
| 2026-04-28 17:51 | 55.59966 | 37.27657 | 679 ft | 3 kts | 18° |
| 2026-04-28 17:51 | 55.59986 | 37.27683 | 679 ft | 4 kts | 50° |
| 2026-04-28 17:51 | 55.60002 | 37.27729 | 679 ft | 5 kts | 70° |
| 2026-04-28 17:51 | 55.60000 | 37.27792 | 679 ft | 6 kts | 110° |
| 2026-04-28 17:52 | 55.59977 | 37.27852 | 679 ft | 6 kts | 126° |
| 2026-04-28 17:52 | 55.59961 | 37.27923 | 679 ft | 7 kts | 92° |
| 2026-04-28 17:52 | 55.60019 | 37.28005 | 679 ft | 0 kts | 18° |